sensor_id;sensor_type;location;lat;lon;timestamp;P1;durP1;ratioP1;P2;durP2;ratioP2
33268;SDS011;19640;50.944;5.260;2023-04-23T00:02:08;15.20;;;13.73;;
33268;SDS011;19640;50.944;5.260;2023-04-23T00:04:36;20.23;;;16.88;;
33268;SDS011;19640;50.944;5.260;2023-04-23T00:07:03;16.48;;;13.30;;
33268;SDS011;19640;50.944;5.260;2023-04-23T00:09:29;15.85;;;13.57;;
33268;SDS011;19640;50.944;5.260;2023-04-23T00:11:59;16.88;;;12.70;;
33268;SDS011;19640;50.944;5.260;2023-04-23T00:14:26;14.85;;;13.35;;
33268;SDS011;19640;50.944;5.260;2023-04-23T00:16:52;14.60;;;13.20;;
33268;SDS011;19640;50.944;5.260;2023-04-23T00:19:18;17.73;;;15.18;;
33268;SDS011;19640;50.944;5.260;2023-04-23T00:21:44;18.05;;;15.27;;
33268;SDS011;19640;50.944;5.260;2023-04-23T00:24:10;21.65;;;16.67;;
33268;SDS011;19640;50.944;5.260;2023-04-23T00:26:36;25.05;;;16.75;;
33268;SDS011;19640;50.944;5.260;2023-04-23T00:29:02;17.85;;;15.90;;
33268;SDS011;19640;50.944;5.260;2023-04-23T00:31:27;19.75;;;14.65;;
33268;SDS011;19640;50.944;5.260;2023-04-23T00:33:53;19.58;;;17.00;;
33268;SDS011;19640;50.944;5.260;2023-04-23T00:36:20;19.15;;;14.88;;
33268;SDS011;19640;50.944;5.260;2023-04-23T00:38:45;17.23;;;15.15;;
33268;SDS011;19640;50.944;5.260;2023-04-23T00:41:11;17.85;;;14.88;;
33268;SDS011;19640;50.944;5.260;2023-04-23T00:43:37;19.23;;;15.35;;
33268;SDS011;19640;50.944;5.260;2023-04-23T00:46:03;17.13;;;15.10;;
33268;SDS011;19640;50.944;5.260;2023-04-23T00:48:29;21.17;;;14.75;;
33268;SDS011;19640;50.944;5.260;2023-04-23T00:51:06;18.15;;;15.63;;
33268;SDS011;19640;50.944;5.260;2023-04-23T00:53:32;19.83;;;15.55;;
33268;SDS011;19640;50.944;5.260;2023-04-23T00:55:58;18.65;;;16.10;;
33268;SDS011;19640;50.944;5.260;2023-04-23T00:58:25;17.63;;;15.27;;
33268;SDS011;19640;50.944;5.260;2023-04-23T01:00:52;20.45;;;17.65;;
33268;SDS011;19640;50.944;5.260;2023-04-23T01:03:18;16.67;;;14.75;;
33268;SDS011;19640;50.944;5.260;2023-04-23T01:05:45;18.80;;;16.35;;
33268;SDS011;19640;50.944;5.260;2023-04-23T01:08:14;18.73;;;16.42;;
33268;SDS011;19640;50.944;5.260;2023-04-23T01:10:41;19.50;;;14.90;;
33268;SDS011;19640;50.944;5.260;2023-04-23T01:13:14;17.33;;;15.25;;
33268;SDS011;19640;50.944;5.260;2023-04-23T01:15:41;21.13;;;17.73;;
33268;SDS011;19640;50.944;5.260;2023-04-23T01:18:07;19.88;;;15.90;;
33268;SDS011;19640;50.944;5.260;2023-04-23T01:20:34;18.55;;;16.63;;
33268;SDS011;19640;50.944;5.260;2023-04-23T01:23:01;25.27;;;20.38;;
33268;SDS011;19640;50.944;5.260;2023-04-23T01:25:28;20.98;;;16.92;;
33268;SDS011;19640;50.944;5.260;2023-04-23T01:27:54;23.52;;;17.77;;
33268;SDS011;19640;50.944;5.260;2023-04-23T01:30:22;23.08;;;18.75;;
33268;SDS011;19640;50.944;5.260;2023-04-23T01:32:49;25.98;;;19.70;;
33268;SDS011;19640;50.944;5.260;2023-04-23T01:35:15;18.80;;;16.13;;
33268;SDS011;19640;50.944;5.260;2023-04-23T01:37:41;21.80;;;17.35;;
33268;SDS011;19640;50.944;5.260;2023-04-23T01:40:08;20.73;;;18.23;;
33268;SDS011;19640;50.944;5.260;2023-04-23T01:42:34;18.17;;;16.05;;
33268;SDS011;19640;50.944;5.260;2023-04-23T01:45:01;18.35;;;15.88;;
33268;SDS011;19640;50.944;5.260;2023-04-23T01:47:27;23.05;;;19.05;;
33268;SDS011;19640;50.944;5.260;2023-04-23T01:49:53;19.30;;;17.02;;
33268;SDS011;19640;50.944;5.260;2023-04-23T01:52:19;21.35;;;16.27;;
33268;SDS011;19640;50.944;5.260;2023-04-23T01:54:45;26.23;;;19.02;;
33268;SDS011;19640;50.944;5.260;2023-04-23T01:57:10;28.15;;;19.90;;
33268;SDS011;19640;50.944;5.260;2023-04-23T01:59:36;24.30;;;18.00;;
33268;SDS011;19640;50.944;5.260;2023-04-23T02:02:03;26.33;;;20.48;;
33268;SDS011;19640;50.944;5.260;2023-04-23T02:04:29;28.00;;;19.90;;
33268;SDS011;19640;50.944;5.260;2023-04-23T02:06:55;22.33;;;17.83;;
33268;SDS011;19640;50.944;5.260;2023-04-23T02:09:21;26.95;;;19.58;;
33268;SDS011;19640;50.944;5.260;2023-04-23T02:11:46;24.95;;;19.40;;
33268;SDS011;19640;50.944;5.260;2023-04-23T02:14:12;28.13;;;19.23;;
33268;SDS011;19640;50.944;5.260;2023-04-23T02:16:38;29.80;;;20.88;;
33268;SDS011;19640;50.944;5.260;2023-04-23T02:19:04;29.00;;;19.00;;
33268;SDS011;19640;50.944;5.260;2023-04-23T02:21:30;20.77;;;18.52;;
33268;SDS011;19640;50.944;5.260;2023-04-23T02:23:55;24.38;;;18.70;;
33268;SDS011;19640;50.944;5.260;2023-04-23T02:26:21;19.02;;;16.17;;
33268;SDS011;19640;50.944;5.260;2023-04-23T02:28:49;19.58;;;16.90;;
33268;SDS011;19640;50.944;5.260;2023-04-23T02:31:15;18.35;;;16.35;;
33268;SDS011;19640;50.944;5.260;2023-04-23T02:33:41;20.65;;;17.48;;
33268;SDS011;19640;50.944;5.260;2023-04-23T02:36:07;19.83;;;17.73;;
33268;SDS011;19640;50.944;5.260;2023-04-23T02:38:36;18.25;;;15.52;;
33268;SDS011;19640;50.944;5.260;2023-04-23T02:41:02;19.92;;;16.27;;
33268;SDS011;19640;50.944;5.260;2023-04-23T02:43:27;17.17;;;15.07;;
33268;SDS011;19640;50.944;5.260;2023-04-23T02:45:53;18.92;;;16.23;;
33268;SDS011;19640;50.944;5.260;2023-04-23T02:48:19;19.95;;;16.02;;
33268;SDS011;19640;50.944;5.260;2023-04-23T02:50:46;18.95;;;16.42;;
33268;SDS011;19640;50.944;5.260;2023-04-23T02:53:11;16.85;;;14.38;;
33268;SDS011;19640;50.944;5.260;2023-04-23T02:55:37;16.75;;;15.00;;
33268;SDS011;19640;50.944;5.260;2023-04-23T02:58:03;16.02;;;14.10;;
33268;SDS011;19640;50.944;5.260;2023-04-23T03:00:28;16.13;;;14.50;;
33268;SDS011;19640;50.944;5.260;2023-04-23T03:02:55;15.18;;;13.63;;
33268;SDS011;19640;50.944;5.260;2023-04-23T03:05:21;14.80;;;13.00;;
33268;SDS011;19640;50.944;5.260;2023-04-23T03:07:47;15.75;;;14.05;;
33268;SDS011;19640;50.944;5.260;2023-04-23T03:10:12;15.77;;;14.15;;
33268;SDS011;19640;50.944;5.260;2023-04-23T03:12:38;17.65;;;15.85;;
33268;SDS011;19640;50.944;5.260;2023-04-23T03:15:04;16.17;;;13.70;;
33268;SDS011;19640;50.944;5.260;2023-04-23T03:17:30;18.27;;;15.65;;
33268;SDS011;19640;50.944;5.260;2023-04-23T03:19:56;20.98;;;14.27;;
33268;SDS011;19640;50.944;5.260;2023-04-23T03:22:22;16.52;;;14.45;;
33268;SDS011;19640;50.944;5.260;2023-04-23T03:24:47;15.80;;;14.20;;
33268;SDS011;19640;50.944;5.260;2023-04-23T03:27:13;19.95;;;14.82;;
33268;SDS011;19640;50.944;5.260;2023-04-23T03:29:39;16.17;;;14.48;;
33268;SDS011;19640;50.944;5.260;2023-04-23T03:32:05;17.95;;;16.15;;
33268;SDS011;19640;50.944;5.260;2023-04-23T03:34:31;18.42;;;14.95;;
33268;SDS011;19640;50.944;5.260;2023-04-23T03:36:57;17.98;;;14.90;;
33268;SDS011;19640;50.944;5.260;2023-04-23T03:39:22;17.05;;;15.27;;
33268;SDS011;19640;50.944;5.260;2023-04-23T03:41:48;16.58;;;14.90;;
33268;SDS011;19640;50.944;5.260;2023-04-23T03:44:14;19.13;;;15.13;;
33268;SDS011;19640;50.944;5.260;2023-04-23T03:46:39;17.08;;;15.35;;
33268;SDS011;19640;50.944;5.260;2023-04-23T03:49:05;17.27;;;15.48;;
33268;SDS011;19640;50.944;5.260;2023-04-23T03:51:31;18.05;;;14.77;;
33268;SDS011;19640;50.944;5.260;2023-04-23T03:53:57;15.70;;;14.02;;
33268;SDS011;19640;50.944;5.260;2023-04-23T03:56:22;14.50;;;12.65;;
33268;SDS011;19640;50.944;5.260;2023-04-23T03:58:48;15.60;;;13.55;;
33268;SDS011;19640;50.944;5.260;2023-04-23T04:01:14;16.52;;;13.73;;
33268;SDS011;19640;50.944;5.260;2023-04-23T04:03:39;14.30;;;12.70;;
33268;SDS011;19640;50.944;5.260;2023-04-23T04:06:05;18.27;;;13.60;;
33268;SDS011;19640;50.944;5.260;2023-04-23T04:08:31;14.82;;;13.27;;
33268;SDS011;19640;50.944;5.260;2023-04-23T04:10:57;12.93;;;11.55;;
33268;SDS011;19640;50.944;5.260;2023-04-23T04:13:23;14.45;;;12.95;;
33268;SDS011;19640;50.944;5.260;2023-04-23T04:15:48;12.75;;;11.50;;
33268;SDS011;19640;50.944;5.260;2023-04-23T04:18:14;13.63;;;11.75;;
33268;SDS011;19640;50.944;5.260;2023-04-23T04:20:40;12.13;;;10.93;;
33268;SDS011;19640;50.944;5.260;2023-04-23T04:23:08;13.45;;;11.63;;
33268;SDS011;19640;50.944;5.260;2023-04-23T04:25:34;12.48;;;11.15;;
33268;SDS011;19640;50.944;5.260;2023-04-23T04:28:03;15.65;;;11.88;;
33268;SDS011;19640;50.944;5.260;2023-04-23T04:30:32;13.05;;;11.65;;
33268;SDS011;19640;50.944;5.260;2023-04-23T04:32:58;11.77;;;10.52;;
33268;SDS011;19640;50.944;5.260;2023-04-23T04:35:25;15.65;;;10.95;;
33268;SDS011;19640;50.944;5.260;2023-04-23T04:37:51;12.25;;;10.95;;
33268;SDS011;19640;50.944;5.260;2023-04-23T04:40:18;12.85;;;10.57;;
33268;SDS011;19640;50.944;5.260;2023-04-23T04:42:44;12.88;;;10.75;;
33268;SDS011;19640;50.944;5.260;2023-04-23T04:45:10;12.27;;;10.00;;
33268;SDS011;19640;50.944;5.260;2023-04-23T04:47:36;11.48;;;10.35;;
33268;SDS011;19640;50.944;5.260;2023-04-23T04:50:02;11.63;;;10.50;;
33268;SDS011;19640;50.944;5.260;2023-04-23T04:52:29;13.85;;;10.13;;
33268;SDS011;19640;50.944;5.260;2023-04-23T04:54:55;11.45;;;10.18;;
33268;SDS011;19640;50.944;5.260;2023-04-23T04:57:21;11.93;;;10.35;;
33268;SDS011;19640;50.944;5.260;2023-04-23T04:59:47;13.35;;;10.68;;
33268;SDS011;19640;50.944;5.260;2023-04-23T05:02:13;12.82;;;10.85;;
33268;SDS011;19640;50.944;5.260;2023-04-23T05:04:40;18.02;;;10.27;;
33268;SDS011;19640;50.944;5.260;2023-04-23T05:07:05;11.15;;;10.05;;
33268;SDS011;19640;50.944;5.260;2023-04-23T05:09:31;10.98;;;9.50;;
33268;SDS011;19640;50.944;5.260;2023-04-23T05:11:57;11.27;;;9.77;;
33268;SDS011;19640;50.944;5.260;2023-04-23T05:14:23;13.40;;;9.57;;
33268;SDS011;19640;50.944;5.260;2023-04-23T05:16:50;11.95;;;8.77;;
33268;SDS011;19640;50.944;5.260;2023-04-23T05:19:16;11.05;;;9.05;;
33268;SDS011;19640;50.944;5.260;2023-04-23T05:21:42;11.00;;;8.93;;
33268;SDS011;19640;50.944;5.260;2023-04-23T05:24:07;8.88;;;7.97;;
33268;SDS011;19640;50.944;5.260;2023-04-23T05:26:33;8.57;;;7.78;;
33268;SDS011;19640;50.944;5.260;2023-04-23T05:28:59;11.07;;;6.93;;
33268;SDS011;19640;50.944;5.260;2023-04-23T05:31:24;8.20;;;6.72;;
33268;SDS011;19640;50.944;5.260;2023-04-23T05:33:50;8.25;;;6.80;;
33268;SDS011;19640;50.944;5.260;2023-04-23T05:36:16;7.88;;;7.07;;
33268;SDS011;19640;50.944;5.260;2023-04-23T05:38:42;7.03;;;6.32;;
33268;SDS011;19640;50.944;5.260;2023-04-23T05:41:08;7.75;;;6.50;;
33268;SDS011;19640;50.944;5.260;2023-04-23T05:43:34;10.15;;;6.80;;
33268;SDS011;19640;50.944;5.260;2023-04-23T05:46:00;11.57;;;6.55;;
33268;SDS011;19640;50.944;5.260;2023-04-23T05:48:28;8.50;;;6.10;;
33268;SDS011;19640;50.944;5.260;2023-04-23T05:50:54;8.98;;;5.63;;
33268;SDS011;19640;50.944;5.260;2023-04-23T05:53:19;6.63;;;5.75;;
33268;SDS011;19640;50.944;5.260;2023-04-23T05:55:45;6.30;;;5.70;;
33268;SDS011;19640;50.944;5.260;2023-04-23T05:58:11;6.30;;;4.78;;
33268;SDS011;19640;50.944;5.260;2023-04-23T06:00:36;6.47;;;4.57;;
33268;SDS011;19640;50.944;5.260;2023-04-23T06:03:04;5.68;;;5.05;;
33268;SDS011;19640;50.944;5.260;2023-04-23T06:05:31;7.72;;;5.15;;
33268;SDS011;19640;50.944;5.260;2023-04-23T06:07:56;6.72;;;4.40;;
33268;SDS011;19640;50.944;5.260;2023-04-23T06:10:22;7.65;;;4.22;;
33268;SDS011;19640;50.944;5.260;2023-04-23T06:12:48;6.68;;;4.00;;
33268;SDS011;19640;50.944;5.260;2023-04-23T06:15:14;6.45;;;3.90;;
33268;SDS011;19640;50.944;5.260;2023-04-23T06:17:39;5.70;;;3.92;;
33268;SDS011;19640;50.944;5.260;2023-04-23T06:20:05;5.45;;;3.78;;
33268;SDS011;19640;50.944;5.260;2023-04-23T06:22:33;3.78;;;3.33;;
33268;SDS011;19640;50.944;5.260;2023-04-23T06:24:58;7.13;;;3.20;;
33268;SDS011;19640;50.944;5.260;2023-04-23T06:27:24;4.63;;;2.95;;
33268;SDS011;19640;50.944;5.260;2023-04-23T06:29:51;3.28;;;2.97;;
33268;SDS011;19640;50.944;5.260;2023-04-23T06:32:17;4.95;;;3.63;;
33268;SDS011;19640;50.944;5.260;2023-04-23T06:34:43;5.22;;;2.85;;
33268;SDS011;19640;50.944;5.260;2023-04-23T06:37:09;3.08;;;2.75;;
33268;SDS011;19640;50.944;5.260;2023-04-23T06:39:35;4.15;;;3.00;;
33268;SDS011;19640;50.944;5.260;2023-04-23T06:42:01;4.38;;;3.15;;
33268;SDS011;19640;50.944;5.260;2023-04-23T06:44:27;5.95;;;3.00;;
33268;SDS011;19640;50.944;5.260;2023-04-23T06:46:53;4.47;;;2.88;;
33268;SDS011;19640;50.944;5.260;2023-04-23T06:49:19;5.20;;;2.90;;
33268;SDS011;19640;50.944;5.260;2023-04-23T06:51:45;4.90;;;2.85;;
33268;SDS011;19640;50.944;5.260;2023-04-23T06:54:10;4.22;;;2.58;;
33268;SDS011;19640;50.944;5.260;2023-04-23T06:56:36;5.80;;;3.33;;
33268;SDS011;19640;50.944;5.260;2023-04-23T06:59:02;5.63;;;2.97;;
33268;SDS011;19640;50.944;5.260;2023-04-23T07:01:27;4.15;;;2.63;;
33268;SDS011;19640;50.944;5.260;2023-04-23T07:03:53;4.00;;;2.00;;
33268;SDS011;19640;50.944;5.260;2023-04-23T07:06:19;3.53;;;2.20;;
33268;SDS011;19640;50.944;5.260;2023-04-23T07:08:45;5.10;;;2.20;;
33268;SDS011;19640;50.944;5.260;2023-04-23T07:11:10;4.63;;;2.25;;
33268;SDS011;19640;50.944;5.260;2023-04-23T07:13:36;5.75;;;1.80;;
33268;SDS011;19640;50.944;5.260;2023-04-23T07:16:04;4.18;;;2.08;;
33268;SDS011;19640;50.944;5.260;2023-04-23T07:18:29;3.42;;;1.55;;
33268;SDS011;19640;50.944;5.260;2023-04-23T07:20:55;4.65;;;2.00;;
33268;SDS011;19640;50.944;5.260;2023-04-23T07:23:21;3.75;;;1.83;;
33268;SDS011;19640;50.944;5.260;2023-04-23T07:25:47;4.30;;;1.50;;
33268;SDS011;19640;50.944;5.260;2023-04-23T07:28:12;9.70;;;2.13;;
33268;SDS011;19640;50.944;5.260;2023-04-23T07:30:38;2.38;;;1.42;;
33268;SDS011;19640;50.944;5.260;2023-04-23T07:33:04;2.33;;;1.60;;
33268;SDS011;19640;50.944;5.260;2023-04-23T07:35:30;4.68;;;1.52;;
33268;SDS011;19640;50.944;5.260;2023-04-23T07:37:55;4.57;;;1.67;;
33268;SDS011;19640;50.944;5.260;2023-04-23T07:40:22;9.70;;;2.47;;
33268;SDS011;19640;50.944;5.260;2023-04-23T07:42:49;5.32;;;1.95;;
33268;SDS011;19640;50.944;5.260;2023-04-23T07:45:15;4.05;;;1.60;;
33268;SDS011;19640;50.944;5.260;2023-04-23T07:47:41;4.22;;;1.70;;
33268;SDS011;19640;50.944;5.260;2023-04-23T07:50:07;5.20;;;1.67;;
33268;SDS011;19640;50.944;5.260;2023-04-23T07:52:33;12.07;;;2.70;;
33268;SDS011;19640;50.944;5.260;2023-04-23T07:54:59;4.70;;;1.35;;
33268;SDS011;19640;50.944;5.260;2023-04-23T07:57:26;7.20;;;1.30;;
33268;SDS011;19640;50.944;5.260;2023-04-23T07:59:51;4.05;;;1.65;;
33268;SDS011;19640;50.944;5.260;2023-04-23T08:02:17;2.67;;;1.17;;
33268;SDS011;19640;50.944;5.260;2023-04-23T08:04:47;5.70;;;1.50;;
33268;SDS011;19640;50.944;5.260;2023-04-23T08:07:13;5.75;;;1.55;;
33268;SDS011;19640;50.944;5.260;2023-04-23T08:09:39;4.78;;;1.52;;
33268;SDS011;19640;50.944;5.260;2023-04-23T08:12:06;3.30;;;1.20;;
33268;SDS011;19640;50.944;5.260;2023-04-23T08:14:32;3.28;;;1.20;;
33268;SDS011;19640;50.944;5.260;2023-04-23T08:16:57;6.68;;;1.50;;
33268;SDS011;19640;50.944;5.260;2023-04-23T08:19:23;5.38;;;1.10;;
33268;SDS011;19640;50.944;5.260;2023-04-23T08:21:49;3.63;;;1.73;;
33268;SDS011;19640;50.944;5.260;2023-04-23T08:24:16;6.47;;;1.55;;
33268;SDS011;19640;50.944;5.260;2023-04-23T08:26:42;6.43;;;1.70;;
33268;SDS011;19640;50.944;5.260;2023-04-23T08:29:07;3.55;;;1.48;;
33268;SDS011;19640;50.944;5.260;2023-04-23T08:31:33;4.65;;;1.58;;
33268;SDS011;19640;50.944;5.260;2023-04-23T08:33:59;4.20;;;1.60;;
33268;SDS011;19640;50.944;5.260;2023-04-23T08:36:25;6.13;;;1.85;;
33268;SDS011;19640;50.944;5.260;2023-04-23T08:38:51;3.42;;;1.88;;
33268;SDS011;19640;50.944;5.260;2023-04-23T08:41:17;3.35;;;1.75;;
33268;SDS011;19640;50.944;5.260;2023-04-23T08:43:48;5.82;;;2.38;;
33268;SDS011;19640;50.944;5.260;2023-04-23T08:46:16;3.97;;;2.22;;
33268;SDS011;19640;50.944;5.260;2023-04-23T08:48:43;6.20;;;2.42;;
33268;SDS011;19640;50.944;5.260;2023-04-23T08:51:09;5.00;;;2.15;;
33268;SDS011;19640;50.944;5.260;2023-04-23T08:53:42;4.07;;;1.70;;
33268;SDS011;19640;50.944;5.260;2023-04-23T08:56:10;7.50;;;2.10;;
33268;SDS011;19640;50.944;5.260;2023-04-23T08:58:38;3.63;;;1.67;;
33268;SDS011;19640;50.944;5.260;2023-04-23T09:01:06;7.63;;;2.00;;
33268;SDS011;19640;50.944;5.260;2023-04-23T09:03:33;6.15;;;2.13;;
33268;SDS011;19640;50.944;5.260;2023-04-23T09:05:59;3.88;;;1.75;;
33268;SDS011;19640;50.944;5.260;2023-04-23T09:08:25;4.70;;;1.65;;
33268;SDS011;19640;50.944;5.260;2023-04-23T09:10:51;9.73;;;2.30;;
33268;SDS011;19640;50.944;5.260;2023-04-23T09:13:20;5.22;;;1.90;;
33268;SDS011;19640;50.944;5.260;2023-04-23T09:15:47;4.00;;;2.13;;
33268;SDS011;19640;50.944;5.260;2023-04-23T09:18:12;3.42;;;1.58;;
33268;SDS011;19640;50.944;5.260;2023-04-23T09:20:38;5.30;;;2.10;;
33268;SDS011;19640;50.944;5.260;2023-04-23T09:23:07;5.88;;;1.90;;
33268;SDS011;19640;50.944;5.260;2023-04-23T09:25:33;4.53;;;1.42;;
33268;SDS011;19640;50.944;5.260;2023-04-23T09:27:59;4.20;;;1.27;;
33268;SDS011;19640;50.944;5.260;2023-04-23T09:30:27;3.58;;;1.30;;
33268;SDS011;19640;50.944;5.260;2023-04-23T09:32:53;4.10;;;1.40;;
33268;SDS011;19640;50.944;5.260;2023-04-23T09:35:19;4.07;;;1.20;;
33268;SDS011;19640;50.944;5.260;2023-04-23T09:37:45;4.00;;;1.05;;
33268;SDS011;19640;50.944;5.260;2023-04-23T09:42:48;3.55;;;1.30;;
33268;SDS011;19640;50.944;5.260;2023-04-23T09:45:14;1.92;;;1.17;;
33268;SDS011;19640;50.944;5.260;2023-04-23T09:47:47;2.70;;;0.77;;
33268;SDS011;19640;50.944;5.260;2023-04-23T09:50:35;4.20;;;1.17;;
33268;SDS011;19640;50.944;5.260;2023-04-23T09:53:06;4.80;;;1.80;;
33268;SDS011;19640;50.944;5.260;2023-04-23T09:55:34;4.03;;;1.23;;
33268;SDS011;19640;50.944;5.260;2023-04-23T09:58:04;3.00;;;1.00;;
33268;SDS011;19640;50.944;5.260;2023-04-23T10:00:34;4.05;;;1.42;;
33268;SDS011;19640;50.944;5.260;2023-04-23T10:03:01;3.72;;;1.08;;
33268;SDS011;19640;50.944;5.260;2023-04-23T10:05:27;3.17;;;0.93;;
33268;SDS011;19640;50.944;5.260;2023-04-23T10:07:56;1.95;;;0.75;;
33268;SDS011;19640;50.944;5.260;2023-04-23T10:10:22;3.05;;;0.98;;
33268;SDS011;19640;50.944;5.260;2023-04-23T10:12:50;3.65;;;0.90;;
33268;SDS011;19640;50.944;5.260;2023-04-23T10:17:50;2.55;;;0.82;;
33268;SDS011;19640;50.944;5.260;2023-04-23T10:20:17;2.50;;;0.98;;
33268;SDS011;19640;50.944;5.260;2023-04-23T10:22:46;6.68;;;1.20;;
33268;SDS011;19640;50.944;5.260;2023-04-23T10:25:12;4.05;;;1.38;;
33268;SDS011;19640;50.944;5.260;2023-04-23T10:27:39;2.17;;;0.88;;
33268;SDS011;19640;50.944;5.260;2023-04-23T10:30:10;3.17;;;0.90;;
33268;SDS011;19640;50.944;5.260;2023-04-23T10:32:38;4.22;;;1.15;;
33268;SDS011;19640;50.944;5.260;2023-04-23T10:35:06;3.47;;;0.90;;
33268;SDS011;19640;50.944;5.260;2023-04-23T10:37:33;3.67;;;1.00;;
33268;SDS011;19640;50.944;5.260;2023-04-23T10:40:02;3.53;;;1.00;;
33268;SDS011;19640;50.944;5.260;2023-04-23T10:42:35;4.53;;;1.77;;
33268;SDS011;19640;50.944;5.260;2023-04-23T10:45:06;6.40;;;1.42;;
33268;SDS011;19640;50.944;5.260;2023-04-23T10:47:36;2.85;;;0.80;;
33268;SDS011;19640;50.944;5.260;2023-04-23T10:52:51;5.32;;;1.48;;
33268;SDS011;19640;50.944;5.260;2023-04-23T10:55:25;6.00;;;1.00;;
33268;SDS011;19640;50.944;5.260;2023-04-23T11:00:25;2.35;;;0.90;;
33268;SDS011;19640;50.944;5.260;2023-04-23T11:02:52;4.97;;;1.23;;
33268;SDS011;19640;50.944;5.260;2023-04-23T11:05:19;3.65;;;0.80;;
33268;SDS011;19640;50.944;5.260;2023-04-23T11:08:08;5.20;;;1.00;;
33268;SDS011;19640;50.944;5.260;2023-04-23T11:10:33;7.32;;;1.10;;
33268;SDS011;19640;50.944;5.260;2023-04-23T11:13:24;3.33;;;0.73;;
33268;SDS011;19640;50.944;5.260;2023-04-23T11:24:33;3.50;;;0.90;;
33268;SDS011;19640;50.944;5.260;2023-04-23T11:27:10;5.15;;;1.20;;
33268;SDS011;19640;50.944;5.260;2023-04-23T11:29:37;4.20;;;1.10;;
33268;SDS011;19640;50.944;5.260;2023-04-23T11:32:05;2.15;;;0.80;;
33268;SDS011;19640;50.944;5.260;2023-04-23T11:34:44;3.58;;;0.82;;
33268;SDS011;19640;50.944;5.260;2023-04-23T11:37:14;3.17;;;0.85;;
33268;SDS011;19640;50.944;5.260;2023-04-23T11:39:42;3.60;;;0.82;;
33268;SDS011;19640;50.944;5.260;2023-04-23T11:42:12;1.95;;;0.73;;
33268;SDS011;19640;50.944;5.260;2023-04-23T11:44:42;3.92;;;0.98;;
33268;SDS011;19640;50.944;5.260;2023-04-23T11:47:13;2.33;;;0.93;;
33268;SDS011;19640;50.944;5.260;2023-04-23T11:49:41;2.58;;;0.90;;
33268;SDS011;19640;50.944;5.260;2023-04-23T11:52:08;3.88;;;0.88;;
33268;SDS011;19640;50.944;5.260;2023-04-23T11:54:34;4.55;;;1.55;;
33268;SDS011;19640;50.944;5.260;2023-04-23T11:57:00;2.65;;;1.08;;
33268;SDS011;19640;50.944;5.260;2023-04-23T11:59:28;5.15;;;1.13;;
33268;SDS011;19640;50.944;5.260;2023-04-23T12:01:56;3.20;;;0.80;;
33268;SDS011;19640;50.944;5.260;2023-04-23T12:04:24;2.17;;;1.00;;
33268;SDS011;19640;50.944;5.260;2023-04-23T12:06:50;5.05;;;0.90;;
33268;SDS011;19640;50.944;5.260;2023-04-23T12:09:18;4.03;;;1.27;;
33268;SDS011;19640;50.944;5.260;2023-04-23T12:11:45;3.22;;;1.00;;
33268;SDS011;19640;50.944;5.260;2023-04-23T12:14:12;4.68;;;0.90;;
33268;SDS011;19640;50.944;5.260;2023-04-23T12:16:39;1.90;;;0.65;;
33268;SDS011;19640;50.944;5.260;2023-04-23T12:19:16;5.68;;;1.50;;
33268;SDS011;19640;50.944;5.260;2023-04-23T12:21:53;2.33;;;0.70;;
33268;SDS011;19640;50.944;5.260;2023-04-23T12:24:24;2.95;;;1.00;;
33268;SDS011;19640;50.944;5.260;2023-04-23T12:27:12;3.45;;;0.93;;
33268;SDS011;19640;50.944;5.260;2023-04-23T12:29:39;4.38;;;1.25;;
33268;SDS011;19640;50.944;5.260;2023-04-23T12:32:09;2.53;;;0.80;;
33268;SDS011;19640;50.944;5.260;2023-04-23T12:34:35;2.58;;;0.73;;
33268;SDS011;19640;50.944;5.260;2023-04-23T12:37:04;2.33;;;0.80;;
33268;SDS011;19640;50.944;5.260;2023-04-23T12:39:31;6.38;;;1.10;;
33268;SDS011;19640;50.944;5.260;2023-04-23T12:41:59;3.50;;;0.98;;
33268;SDS011;19640;50.944;5.260;2023-04-23T12:44:30;3.83;;;0.70;;
33268;SDS011;19640;50.944;5.260;2023-04-23T12:46:58;2.90;;;1.08;;
33268;SDS011;19640;50.944;5.260;2023-04-23T12:49:27;3.58;;;1.00;;
33268;SDS011;19640;50.944;5.260;2023-04-23T12:51:54;3.33;;;0.90;;
33268;SDS011;19640;50.944;5.260;2023-04-23T12:54:25;4.30;;;1.00;;
33268;SDS011;19640;50.944;5.260;2023-04-23T12:56:53;3.22;;;0.80;;
33268;SDS011;19640;50.944;5.260;2023-04-23T12:59:19;3.28;;;1.83;;
33268;SDS011;19640;50.944;5.260;2023-04-23T13:01:45;2.10;;;1.48;;
33268;SDS011;19640;50.944;5.260;2023-04-23T13:04:11;3.45;;;1.10;;
33268;SDS011;19640;50.944;5.260;2023-04-23T13:06:36;4.95;;;1.17;;
33268;SDS011;19640;50.944;5.260;2023-04-23T13:09:02;3.20;;;1.08;;
33268;SDS011;19640;50.944;5.260;2023-04-23T13:11:29;4.50;;;1.45;;
33268;SDS011;19640;50.944;5.260;2023-04-23T13:13:56;3.97;;;1.40;;
33268;SDS011;19640;50.944;5.260;2023-04-23T13:16:22;3.25;;;1.20;;
33268;SDS011;19640;50.944;5.260;2023-04-23T13:18:48;8.63;;;1.70;;
33268;SDS011;19640;50.944;5.260;2023-04-23T13:21:15;8.05;;;1.77;;
33268;SDS011;19640;50.944;5.260;2023-04-23T13:23:41;5.35;;;1.38;;
33268;SDS011;19640;50.944;5.260;2023-04-23T13:26:07;3.05;;;1.17;;
33268;SDS011;19640;50.944;5.260;2023-04-23T13:28:33;2.47;;;1.00;;
33268;SDS011;19640;50.944;5.260;2023-04-23T13:31:00;3.17;;;1.23;;
33268;SDS011;19640;50.944;5.260;2023-04-23T13:33:26;3.33;;;1.27;;
33268;SDS011;19640;50.944;5.260;2023-04-23T13:35:52;5.28;;;1.40;;
33268;SDS011;19640;50.944;5.260;2023-04-23T13:38:20;5.82;;;1.10;;
33268;SDS011;19640;50.944;5.260;2023-04-23T13:40:47;3.40;;;0.95;;
33268;SDS011;19640;50.944;5.260;2023-04-23T13:43:12;1.85;;;1.10;;
33268;SDS011;19640;50.944;5.260;2023-04-23T13:45:38;1.38;;;1.00;;
33268;SDS011;19640;50.944;5.260;2023-04-23T13:48:04;4.93;;;0.95;;
33268;SDS011;19640;50.944;5.260;2023-04-23T13:50:31;3.03;;;1.00;;
33268;SDS011;19640;50.944;5.260;2023-04-23T13:52:58;1.83;;;0.80;;
33268;SDS011;19640;50.944;5.260;2023-04-23T13:55:23;2.58;;;1.33;;
33268;SDS011;19640;50.944;5.260;2023-04-23T13:57:49;3.33;;;0.88;;
33268;SDS011;19640;50.944;5.260;2023-04-23T14:00:15;4.03;;;1.42;;
33268;SDS011;19640;50.944;5.260;2023-04-23T14:02:41;1.67;;;0.70;;
33268;SDS011;19640;50.944;5.260;2023-04-23T14:05:07;2.78;;;0.85;;
33268;SDS011;19640;50.944;5.260;2023-04-23T14:07:34;2.38;;;0.90;;
33268;SDS011;19640;50.944;5.260;2023-04-23T14:10:00;1.02;;;0.70;;
33268;SDS011;19640;50.944;5.260;2023-04-23T14:12:26;1.02;;;0.93;;
33268;SDS011;19640;50.944;5.260;2023-04-23T14:14:53;2.25;;;0.88;;
33268;SDS011;19640;50.944;5.260;2023-04-23T14:17:19;1.70;;;0.90;;
33268;SDS011;19640;50.944;5.260;2023-04-23T14:19:45;2.08;;;0.80;;
33268;SDS011;19640;50.944;5.260;2023-04-23T14:22:11;2.33;;;1.33;;
33268;SDS011;19640;50.944;5.260;2023-04-23T14:24:44;1.85;;;0.75;;
33268;SDS011;19640;50.944;5.260;2023-04-23T14:27:13;8.85;;;0.73;;
33268;SDS011;19640;50.944;5.260;2023-04-23T14:32:09;3.53;;;1.00;;
33268;SDS011;19640;50.944;5.260;2023-04-23T14:34:35;2.50;;;0.80;;
33268;SDS011;19640;50.944;5.260;2023-04-23T14:37:01;2.22;;;0.80;;
33268;SDS011;19640;50.944;5.260;2023-04-23T14:39:27;2.47;;;1.42;;
33268;SDS011;19640;50.944;5.260;2023-04-23T14:41:53;1.73;;;1.10;;
33268;SDS011;19640;50.944;5.260;2023-04-23T14:44:20;1.45;;;1.35;;
33268;SDS011;19640;50.944;5.260;2023-04-23T14:46:51;7.68;;;2.42;;
33268;SDS011;19640;50.944;5.260;2023-04-23T14:49:17;3.08;;;1.08;;
33268;SDS011;19640;50.944;5.260;2023-04-23T14:51:44;1.10;;;0.90;;
33268;SDS011;19640;50.944;5.260;2023-04-23T14:54:10;1.65;;;0.90;;
33268;SDS011;19640;50.944;5.260;2023-04-23T14:56:36;1.85;;;0.82;;
33268;SDS011;19640;50.944;5.260;2023-04-23T14:59:02;2.83;;;0.88;;